createdAt,value
2023-01-29T00:00:10.599Z,64.11
2023-01-29T00:01:12.333Z,64.29
2023-01-29T00:02:13.938Z,64.99
2023-01-29T00:03:16.530Z,65.19
2023-01-29T00:04:18.946Z,64.17
2023-01-29T00:05:27.836Z,64.54
2023-01-29T00:06:30.028Z,63.94
2023-01-29T00:07:33.929Z,63.81
2023-01-29T00:08:39.090Z,64.08
2023-01-29T00:09:41.614Z,64.48
2023-01-29T00:10:43.725Z,64.38
2023-01-29T00:11:46.389Z,64.21
2023-01-29T00:12:56.714Z,64.46
2023-01-29T00:13:58.936Z,63.73
2023-01-29T00:15:00.369Z,63.92
2023-01-29T00:16:05.271Z,63.83
2023-01-29T00:17:06.985Z,63.08
2023-01-29T00:18:09.153Z,63.18
2023-01-29T00:19:11.469Z,63.41
2023-01-29T00:20:13.289Z,64.07
2023-01-29T00:21:22.799Z,63.78
2023-01-29T00:22:24.449Z,63.29
2023-01-29T00:23:28.099Z,63.02
2023-01-29T00:24:33.628Z,63.67
2023-01-29T00:25:35.185Z,63.26
2023-01-29T00:26:39.282Z,63.08
2023-01-29T00:27:44.978Z,62.83
2023-01-29T00:28:47.056Z,62.82
2023-01-29T00:30:08.804Z,63.22
2023-01-29T00:31:19.182Z,63.20
2023-01-29T00:32:21.987Z,63.03
2023-01-29T00:33:23.538Z,63.59
2023-01-29T00:34:25.862Z,63.57
2023-01-29T00:35:28.399Z,63.86
2023-01-29T00:36:31.072Z,63.58
2023-01-29T00:37:33.561Z,63.85
2023-01-29T00:38:36.825Z,63.53
2023-01-29T00:39:47.882Z,64.06
2023-01-29T00:41:12.251Z,63.59
2023-01-29T00:42:32.649Z,63.75
2023-01-29T00:43:53.770Z,62.91
2023-01-29T00:44:58.032Z,63.29
2023-01-29T00:46:02.961Z,62.81
2023-01-29T00:47:25.484Z,63.36
2023-01-29T00:48:27.348Z,64.08
2023-01-29T00:49:31.493Z,64.16
2023-01-29T00:50:35.596Z,64.11
2023-01-29T00:51:40.830Z,64.50
2023-01-29T00:52:45.656Z,64.75
2023-01-29T00:53:49.324Z,64.38
2023-01-29T00:54:59.566Z,64.37
2023-01-29T00:56:06.926Z,65.06
2023-01-29T00:57:08.437Z,64.70
2023-01-29T00:58:33.979Z,64.51
2023-01-29T00:59:35.943Z,64.33
2023-01-29T01:00:37.710Z,64.93
2023-01-29T01:01:57.956Z,64.79
2023-01-29T01:03:05.539Z,64.24
2023-01-29T01:04:08.434Z,64.26
2023-01-29T01:05:18.077Z,64.16
2023-01-29T01:06:19.966Z,63.82
2023-01-29T01:07:21.965Z,64.24
2023-01-29T01:08:43.948Z,64.65
2023-01-29T01:10:04.388Z,64.25
2023-01-29T01:11:06.954Z,64.77
2023-01-29T01:12:08.458Z,64.39
2023-01-29T01:13:10.563Z,64.21
2023-01-29T01:14:12.356Z,64.81
2023-01-29T01:15:16.704Z,64.84
2023-01-29T01:16:19.162Z,64.95
2023-01-29T01:17:21.013Z,64.48
2023-01-29T01:18:22.930Z,64.28
2023-01-29T01:19:25.699Z,63.93
2023-01-29T01:20:29.598Z,63.50
2023-01-29T01:21:31.338Z,63.43
2023-01-29T01:22:32.925Z,63.38
2023-01-29T01:23:35.070Z,63.03
2023-01-29T01:24:37.229Z,63.52
2023-01-29T01:25:38.745Z,63.05
2023-01-29T01:26:42.938Z,63.78
2023-01-29T01:27:47.932Z,63.20
2023-01-29T01:28:49.926Z,63.83
2023-01-29T01:29:52.598Z,63.07
2023-01-29T01:30:54.267Z,63.15
2023-01-29T01:31:56.142Z,63.15
2023-01-29T01:32:58.972Z,63.45
2023-01-29T01:34:04.125Z,63.27
2023-01-29T01:35:15.256Z,63.71
2023-01-29T01:36:21.515Z,63.46
2023-01-29T01:37:29.092Z,63.57
2023-01-29T01:38:33.873Z,63.83
2023-01-29T01:39:37.241Z,63.05
2023-01-29T01:40:45.495Z,63.17
2023-01-29T01:41:49.400Z,63.52
2023-01-29T01:43:01.085Z,63.90
2023-01-29T01:44:08.905Z,63.53
2023-01-29T01:45:46.881Z,63.74
2023-01-29T01:46:48.416Z,63.13
2023-01-29T01:47:56.566Z,62.75
2023-01-29T01:49:16.500Z,63.97
2023-01-29T01:50:26.922Z,63.46
2023-01-29T01:51:33.305Z,64.64
2023-01-29T01:52:40.958Z,64.72
2023-01-29T01:53:54.414Z,64.29
2023-01-29T01:54:56.385Z,64.14
2023-01-29T01:56:24.930Z,64.20
2023-01-29T01:57:29.958Z,63.17
2023-01-29T01:58:36.409Z,63.23
2023-01-29T01:59:40.600Z,63.37
2023-01-29T02:00:42.723Z,63.56
2023-01-29T02:01:51.448Z,63.25
2023-01-29T02:03:13.320Z,62.58
2023-01-29T02:04:36.979Z,62.40
2023-01-29T02:05:58.680Z,62.68
2023-01-29T02:07:22.034Z,62.89
2023-01-29T02:09:04.918Z,62.86
2023-01-29T02:10:12.261Z,62.36
2023-01-29T02:11:13.850Z,63.14
2023-01-29T02:12:17.210Z,63.28
2023-01-29T02:13:19.578Z,63.26
2023-01-29T02:14:21.217Z,62.90
2023-01-29T02:15:22.672Z,63.17
2023-01-29T02:16:24.206Z,63.19
2023-01-29T02:17:25.966Z,63.54
2023-01-29T02:18:27.456Z,63.68
2023-01-29T02:19:57.725Z,64.14
2023-01-29T02:21:25.215Z,63.85
2023-01-29T02:22:55.276Z,63.36
2023-01-29T02:24:04.919Z,63.19
2023-01-29T02:25:22.236Z,63.22
2023-01-29T02:26:45.240Z,63.13
2023-01-29T02:27:49.536Z,63.69
2023-01-29T02:29:30.575Z,63.45
2023-01-29T02:30:41.448Z,63.12
2023-01-29T02:31:48.468Z,63.18
2023-01-29T02:33:00.122Z,63.70
2023-01-29T02:34:01.668Z,63.49
2023-01-29T02:35:33.150Z,63.25
2023-01-29T02:37:13.431Z,62.98
2023-01-29T02:38:22.069Z,63.30
2023-01-29T02:39:50.289Z,63.62
2023-01-29T02:41:01.199Z,63.40
2023-01-29T02:42:11.818Z,63.99
2023-01-29T02:43:23.557Z,63.70
2023-01-29T02:44:44.453Z,63.88
2023-01-29T02:46:21.137Z,63.77
2023-01-29T02:47:42.041Z,63.99
2023-01-29T02:48:54.031Z,64.72
2023-01-29T02:50:31.673Z,64.39
2023-01-29T02:51:40.804Z,64.52
2023-01-29T02:52:54.236Z,64.42
2023-01-29T02:54:04.397Z,64.07
2023-01-29T02:55:17.595Z,64.26
2023-01-29T02:56:28.035Z,64.04
2023-01-29T02:57:35.219Z,63.44
2023-01-29T02:58:43.286Z,63.48
2023-01-29T03:00:04.076Z,63.43
2023-01-29T03:01:18.355Z,63.24
2023-01-29T03:02:28.929Z,63.28
2023-01-29T03:03:42.372Z,63.26
2023-01-29T03:04:49.511Z,63.48
2023-01-29T03:05:59.253Z,63.24
2023-01-29T03:07:10.606Z,63.50
2023-01-29T03:08:18.926Z,63.31
2023-01-29T03:09:31.027Z,63.61
2023-01-29T03:10:40.374Z,63.61
2023-01-29T03:11:48.733Z,64.09
2023-01-29T03:13:03.041Z,63.67
2023-01-29T03:14:10.463Z,63.96
2023-01-29T03:15:19.406Z,64.01
2023-01-29T03:16:28.140Z,63.93
2023-01-29T03:17:37.342Z,63.65
2023-01-29T03:18:46.269Z,63.77
2023-01-29T03:19:49.200Z,63.88
2023-01-29T03:20:58.549Z,63.76
2023-01-29T03:22:04.609Z,63.62
2023-01-29T03:23:14.333Z,63.74
2023-01-29T03:24:43.931Z,64.14
2023-01-29T03:26:04.630Z,64.19
2023-01-29T03:27:30.534Z,64.82
2023-01-29T03:28:51.990Z,64.28
2023-01-29T03:30:14.176Z,65.14
2023-01-29T03:31:36.953Z,65.18
2023-01-29T03:32:40.275Z,65.45
2023-01-29T03:33:51.846Z,63.73
2023-01-29T03:34:58.932Z,64.01
2023-01-29T03:36:08.790Z,64.09
2023-01-29T03:37:23.999Z,64.55
2023-01-29T03:38:29.604Z,65.11
2023-01-29T03:39:31.343Z,64.27
2023-01-29T03:40:53.103Z,64.36
2023-01-29T03:42:36.478Z,64.07
2023-01-29T03:43:45.758Z,63.91
2023-01-29T03:44:53.223Z,64.03
2023-01-29T03:46:08.476Z,63.79
2023-01-29T03:47:43.073Z,63.71
2023-01-29T03:48:47.709Z,63.90
2023-01-29T03:50:01.014Z,63.64
2023-01-29T03:51:17.409Z,63.68
2023-01-29T03:52:34.979Z,63.84
2023-01-29T03:53:46.285Z,63.65
2023-01-29T03:55:06.880Z,64.02
2023-01-29T03:56:28.254Z,64.04
2023-01-29T03:57:45.696Z,64.23
2023-01-29T03:59:04.838Z,64.59
2023-01-29T04:00:18.554Z,64.91
2023-01-29T04:01:32.996Z,65.36
2023-01-29T04:02:52.660Z,65.09
2023-01-29T04:03:59.176Z,64.29
2023-01-29T04:05:11.992Z,63.91
2023-01-29T04:06:29.488Z,64.07
2023-01-29T04:07:34.749Z,64.16
2023-01-29T04:08:59.046Z,64.77
2023-01-29T04:10:08.006Z,64.91
2023-01-29T04:11:14.386Z,64.82
2023-01-29T04:12:20.397Z,64.15
2023-01-29T04:13:24.199Z,64.24
2023-01-29T04:14:25.849Z,63.93
2023-01-29T04:15:31.548Z,63.71
2023-01-29T04:16:39.929Z,63.61
2023-01-29T04:17:51.090Z,63.44
2023-01-29T04:18:54.337Z,63.87
2023-01-29T04:19:56.027Z,64.45
2023-01-29T04:20:58.061Z,64.97
2023-01-29T04:22:26.243Z,64.29
2023-01-29T04:23:28.212Z,63.82
2023-01-29T04:24:30.081Z,63.61
2023-01-29T04:25:43.367Z,63.37
2023-01-29T04:26:53.793Z,63.80
2023-01-29T04:28:10.485Z,64.45
2023-01-29T04:29:22.185Z,64.58
2023-01-29T04:30:44.122Z,65.09
2023-01-29T04:32:21.054Z,64.89
2023-01-29T04:33:44.775Z,64.68
2023-01-29T04:34:52.191Z,64.56
2023-01-29T04:36:25.321Z,64.29
2023-01-29T04:38:14.971Z,64.74
2023-01-29T04:39:29.289Z,64.35
2023-01-29T04:40:48.817Z,64.62
2023-01-29T04:41:54.636Z,64.10
2023-01-29T04:43:06.755Z,64.53
2023-01-29T04:44:18.675Z,64.66
2023-01-29T04:45:58.042Z,64.60
2023-01-29T04:47:35.823Z,64.52
2023-01-29T04:48:50.245Z,63.75
2023-01-29T04:50:15.663Z,63.89
2023-01-29T04:51:34.498Z,64.19
2023-01-29T04:52:52.803Z,64.66
2023-01-29T04:54:12.392Z,64.34
2023-01-29T04:55:40.973Z,63.91
2023-01-29T04:56:53.433Z,63.84
2023-01-29T04:58:22.562Z,63.85
2023-01-29T04:59:43.109Z,64.28
2023-01-29T05:00:47.656Z,64.81
2023-01-29T05:01:49.718Z,64.11
2023-01-29T05:02:51.366Z,64.53
2023-01-29T05:03:55.858Z,64.43
2023-01-29T05:04:59.569Z,64.26
2023-01-29T05:06:02.571Z,64.72
2023-01-29T05:07:10.284Z,64.69
2023-01-29T05:08:15.801Z,64.99
2023-01-29T05:09:20.132Z,64.93
2023-01-29T05:10:24.132Z,64.79
2023-01-29T05:11:26.361Z,64.54
2023-01-29T05:12:30.296Z,64.36
2023-01-29T05:13:34.474Z,64.74
2023-01-29T05:14:40.384Z,64.78
2023-01-29T05:15:53.012Z,64.57
2023-01-29T05:16:57.707Z,64.10
2023-01-29T05:18:03.123Z,63.82
2023-01-29T05:19:04.696Z,63.63
2023-01-29T05:20:07.223Z,63.75
2023-01-29T05:21:10.089Z,64.40
2023-01-29T05:22:13.837Z,64.68
2023-01-29T05:23:20.283Z,64.69
2023-01-29T05:24:24.400Z,64.60
2023-01-29T05:25:32.276Z,63.93
2023-01-29T05:26:53.451Z,64.14
2023-01-29T05:28:04.091Z,64.02
2023-01-29T05:29:05.681Z,63.45
2023-01-29T05:30:07.889Z,63.65
2023-01-29T05:31:09.679Z,64.02
2023-01-29T05:32:11.338Z,64.27
2023-01-29T05:33:39.257Z,64.57
2023-01-29T05:34:40.838Z,64.95
2023-01-29T05:35:42.494Z,64.33
2023-01-29T05:36:44.085Z,64.46
2023-01-29T05:37:45.775Z,64.30
2023-01-29T05:38:47.213Z,64.93
2023-01-29T05:39:48.705Z,65.14
2023-01-29T05:40:50.195Z,64.77
2023-01-29T05:41:51.692Z,63.94
2023-01-29T05:42:53.191Z,63.75
2023-01-29T05:43:54.724Z,64.21
2023-01-29T05:44:56.262Z,64.44
2023-01-29T05:46:00.377Z,64.45
2023-01-29T05:47:02.780Z,64.28
2023-01-29T05:48:04.427Z,64.73
2023-01-29T05:49:06.328Z,64.20
2023-01-29T05:50:08.898Z,64.02
2023-01-29T05:51:10.443Z,64.07
2023-01-29T05:52:12.043Z,64.01
2023-01-29T05:53:13.544Z,64.15
2023-01-29T05:54:15.289Z,64.23
2023-01-29T05:55:16.969Z,64.34
2023-01-29T05:56:18.507Z,64.71
2023-01-29T05:57:20.041Z,64.14
2023-01-29T05:58:21.552Z,64.45
2023-01-29T05:59:23.449Z,64.43
2023-01-29T06:00:24.979Z,64.11
2023-01-29T06:01:26.526Z,64.75
2023-01-29T06:02:31.608Z,65.42
2023-01-29T06:03:33.147Z,65.04
2023-01-29T06:04:34.753Z,65.14
2023-01-29T06:05:40.066Z,65.33
2023-01-29T06:06:41.499Z,65.01
2023-01-29T06:07:45.355Z,64.96
2023-01-29T06:08:47.264Z,65.41
2023-01-29T06:09:48.819Z,65.77
2023-01-29T06:10:50.256Z,65.53
2023-01-29T06:11:51.746Z,65.58
2023-01-29T06:12:53.187Z,65.90
2023-01-29T06:13:55.334Z,65.46
2023-01-29T06:14:56.819Z,65.01
2023-01-29T06:15:58.406Z,64.52
2023-01-29T06:17:00.024Z,64.63
2023-01-29T06:18:01.459Z,64.93
2023-01-29T06:19:03.300Z,65.29
2023-01-29T06:20:05.448Z,64.94
2023-01-29T06:21:11.040Z,65.36
2023-01-29T06:22:12.513Z,65.19
2023-01-29T06:23:13.942Z,64.93
2023-01-29T06:24:15.618Z,64.38
2023-01-29T06:25:17.265Z,64.06
2023-01-29T06:26:18.709Z,64.16
2023-01-29T06:27:20.221Z,64.24
2023-01-29T06:28:21.660Z,63.67
2023-01-29T06:29:23.444Z,63.63
2023-01-29T06:30:24.904Z,63.82
2023-01-29T06:31:38.187Z,64.58
2023-01-29T06:32:40.651Z,63.83
2023-01-29T06:33:42.168Z,64.04
2023-01-29T06:34:43.956Z,63.13
2023-01-29T06:35:45.406Z,63.51
2023-01-29T06:36:46.886Z,63.46
2023-01-29T06:37:48.345Z,63.27
2023-01-29T06:38:50.041Z,63.95
2023-01-29T06:39:51.980Z,64.42
2023-01-29T06:40:53.942Z,64.77
2023-01-29T06:41:55.417Z,64.83
2023-01-29T06:42:56.859Z,64.59
2023-01-29T06:43:58.534Z,64.74
2023-01-29T06:45:00.034Z,64.66
2023-01-29T06:46:01.657Z,64.28
2023-01-29T06:47:03.199Z,63.83
2023-01-29T06:48:04.827Z,64.15
2023-01-29T06:49:06.259Z,63.47
2023-01-29T06:50:08.158Z,63.63
2023-01-29T06:51:10.877Z,63.66
2023-01-29T06:52:12.370Z,63.95
2023-01-29T06:53:13.817Z,64.37
2023-01-29T06:54:15.701Z,64.77
2023-01-29T06:55:17.143Z,64.86
2023-01-29T06:56:18.583Z,65.25
2023-01-29T06:57:20.137Z,64.96
2023-01-29T06:58:21.638Z,64.26
2023-01-29T06:59:23.395Z,64.19
2023-01-29T07:00:24.839Z,64.22
2023-01-29T07:01:35.667Z,63.59
2023-01-29T07:02:37.854Z,64.05
2023-01-29T07:03:39.564Z,63.51
2023-01-29T07:04:43.022Z,63.82
2023-01-29T07:05:51.010Z,64.23
2023-01-29T07:06:52.783Z,64.68
2023-01-29T07:07:54.336Z,64.52
2023-01-29T07:08:56.358Z,64.36
2023-01-29T07:09:57.806Z,64.80
2023-01-29T07:11:02.860Z,65.10
2023-01-29T07:12:04.798Z,65.90
2023-01-29T07:13:06.348Z,65.81
2023-01-29T07:14:08.340Z,65.96
2023-01-29T07:15:10.071Z,65.52
2023-01-29T07:16:11.522Z,65.14
2023-01-29T07:17:12.954Z,64.92
2023-01-29T07:18:14.447Z,64.80
2023-01-29T07:19:15.986Z,65.14
2023-01-29T07:20:17.837Z,65.38
2023-01-29T07:21:19.469Z,65.15
2023-01-29T07:22:20.918Z,64.90
2023-01-29T07:23:23.315Z,64.98
2023-01-29T07:24:25.260Z,64.62
2023-01-29T07:25:26.711Z,64.75
2023-01-29T07:26:28.188Z,64.18
2023-01-29T07:27:29.608Z,64.13
2023-01-29T07:28:31.469Z,63.30
2023-01-29T07:29:33.232Z,62.85
2023-01-29T07:30:35.484Z,62.70
2023-01-29T07:31:37.001Z,62.68
2023-01-29T07:32:38.464Z,63.48
2023-01-29T07:33:40.359Z,63.53
2023-01-29T07:34:41.826Z,63.00
2023-01-29T07:35:43.665Z,62.37
2023-01-29T07:36:45.183Z,62.30
2023-01-29T07:37:50.180Z,62.04
2023-01-29T07:38:51.894Z,62.86
2023-01-29T07:39:53.341Z,63.66
2023-01-29T07:40:54.841Z,63.90
2023-01-29T07:41:56.345Z,64.24
2023-01-29T07:43:01.484Z,63.88
2023-01-29T07:44:02.952Z,64.10
2023-01-29T07:45:06.227Z,64.50
2023-01-29T07:46:07.965Z,64.87
2023-01-29T07:47:09.466Z,64.34
2023-01-29T07:48:13.123Z,63.65
2023-01-29T07:49:15.344Z,63.50
2023-01-29T07:50:17.116Z,61.92
2023-01-29T07:51:18.705Z,62.98
2023-01-29T07:52:22.208Z,63.66
2023-01-29T07:53:24.635Z,64.53
2023-01-29T07:54:26.149Z,64.86
2023-01-29T07:55:27.871Z,64.23
2023-01-29T07:56:29.523Z,63.97
2023-01-29T07:57:31.032Z,63.64
2023-01-29T07:58:34.440Z,63.78
2023-01-29T07:59:37.161Z,64.13
2023-01-29T08:00:38.912Z,64.62
2023-01-29T08:01:40.367Z,65.17
2023-01-29T08:02:41.884Z,64.58
2023-01-29T08:03:43.681Z,64.77
2023-01-29T08:04:45.181Z,64.74
2023-01-29T08:05:47.085Z,64.86
2023-01-29T08:06:48.588Z,65.16
2023-01-29T08:08:05.697Z,64.39
2023-01-29T08:09:09.180Z,63.12
2023-01-29T08:10:11.282Z,63.20
2023-01-29T08:11:12.860Z,62.89
2023-01-29T08:12:14.436Z,63.38
2023-01-29T08:13:16.281Z,63.69
2023-01-29T08:14:17.756Z,63.55
2023-01-29T08:15:19.169Z,64.38
2023-01-29T08:16:20.744Z,64.08
2023-01-29T08:17:22.233Z,63.92
2023-01-29T08:18:24.007Z,64.04
2023-01-29T08:19:25.416Z,63.55
2023-01-29T08:20:26.823Z,64.44
2023-01-29T08:21:28.535Z,63.98
2023-01-29T08:22:29.949Z,63.72
2023-01-29T08:23:31.407Z,64.13
2023-01-29T08:24:47.441Z,64.89
2023-01-29T08:25:54.642Z,64.64
2023-01-29T08:26:56.241Z,64.81
2023-01-29T08:27:59.175Z,64.84
2023-01-29T08:29:00.744Z,64.59
2023-01-29T08:30:02.370Z,64.00
2023-01-29T08:31:03.930Z,64.29
2023-01-29T08:32:05.678Z,64.66
2023-01-29T08:33:07.492Z,64.18
2023-01-29T08:34:08.962Z,63.06
2023-01-29T08:35:10.509Z,63.33
2023-01-29T08:36:12.327Z,63.17
2023-01-29T08:37:13.839Z,62.68
2023-01-29T08:38:15.605Z,62.76
2023-01-29T08:39:17.146Z,62.63
2023-01-29T08:40:18.853Z,63.29
2023-01-29T08:41:20.464Z,62.51
2023-01-29T08:42:21.930Z,63.44
2023-01-29T08:43:23.692Z,63.15
2023-01-29T08:44:25.186Z,63.24
2023-01-29T08:45:26.798Z,63.44
2023-01-29T08:46:28.461Z,63.65
2023-01-29T08:47:30.102Z,63.44
2023-01-29T08:48:32.004Z,63.54
2023-01-29T08:49:33.493Z,63.66
2023-01-29T08:50:36.069Z,62.91
2023-01-29T08:51:37.565Z,63.03
2023-01-29T08:52:39.092Z,62.52
2023-01-29T08:53:40.649Z,62.58
2023-01-29T08:54:42.208Z,63.10
2023-01-29T08:55:46.123Z,63.06
2023-01-29T08:56:47.649Z,62.83
2023-01-29T08:57:49.151Z,63.05
2023-01-29T08:58:50.643Z,63.69
2023-01-29T08:59:52.143Z,63.01
2023-01-29T09:00:53.593Z,62.36
2023-01-29T09:01:55.147Z,62.05
2023-01-29T09:02:56.670Z,62.23
2023-01-29T09:03:58.157Z,62.56
2023-01-29T09:04:59.648Z,62.95
2023-01-29T09:06:01.138Z,63.56
2023-01-29T09:07:02.630Z,62.90
2023-01-29T09:08:05.219Z,63.62
2023-01-29T09:09:06.657Z,62.77
2023-01-29T09:10:08.944Z,63.13
2023-01-29T09:11:11.231Z,64.05
2023-01-29T09:12:12.769Z,63.67
2023-01-29T09:13:14.598Z,63.96
2023-01-29T09:14:16.279Z,64.10
2023-01-29T09:15:18.122Z,63.99
2023-01-29T09:16:19.937Z,64.13
2023-01-29T09:17:21.451Z,63.52
2023-01-29T09:18:23.324Z,63.77
2023-01-29T09:19:25.252Z,63.83
2023-01-29T09:20:26.987Z,62.91
2023-01-29T09:21:28.783Z,61.87
2023-01-29T09:22:30.393Z,61.43
2023-01-29T09:23:32.139Z,61.19
2023-01-29T09:24:35.055Z,61.36
2023-01-29T09:25:37.571Z,61.53
2023-01-29T09:26:40.201Z,62.16
2023-01-29T09:27:41.866Z,62.50
2023-01-29T09:28:43.408Z,62.77
2023-01-29T09:29:44.846Z,63.26
2023-01-29T09:30:47.123Z,63.59
2023-01-29T09:31:48.868Z,63.34
2023-01-29T09:32:54.690Z,62.34
2023-01-29T09:33:56.477Z,62.47
2023-01-29T09:34:58.007Z,62.49
2023-01-29T09:35:59.603Z,62.61
2023-01-29T09:37:01.406Z,61.36
2023-01-29T09:38:03.400Z,60.73
2023-01-29T09:39:04.908Z,61.67
2023-01-29T09:40:07.375Z,62.14
2023-01-29T09:41:39.219Z,62.02
2023-01-29T09:42:49.250Z,61.52
2023-01-29T09:44:00.846Z,62.01
2023-01-29T09:45:14.280Z,62.29
2023-01-29T09:46:25.717Z,62.33
2023-01-29T09:47:28.605Z,62.12
2023-01-29T09:48:41.688Z,62.57
2023-01-29T09:49:52.569Z,62.56
2023-01-29T09:50:57.961Z,62.54
2023-01-29T09:52:05.875Z,62.40
2023-01-29T09:53:35.664Z,62.58
2023-01-29T09:54:50.701Z,62.35
2023-01-29T09:56:06.183Z,62.19
2023-01-29T09:57:14.728Z,61.53
2023-01-29T09:58:35.561Z,61.16
2023-01-29T09:59:37.120Z,62.19
2023-01-29T10:00:44.238Z,62.51
2023-01-29T10:02:11.242Z,62.03
2023-01-29T10:03:22.069Z,61.88
2023-01-29T10:04:23.632Z,61.69
2023-01-29T10:05:50.316Z,61.05
2023-01-29T10:07:20.506Z,60.89
2023-01-29T10:08:46.433Z,61.37
2023-01-29T10:10:02.562Z,61.35
2023-01-29T10:11:11.886Z,61.46
2023-01-29T10:12:24.657Z,61.18
2023-01-29T10:13:52.369Z,59.78
2023-01-29T10:15:06.000Z,60.83
2023-01-29T10:16:31.914Z,59.53
2023-01-29T10:18:18.491Z,60.72
2023-01-29T10:19:47.781Z,61.08
2023-01-29T10:21:26.952Z,62.02
2023-01-29T10:22:37.495Z,61.95
2023-01-29T10:23:53.463Z,61.49
2023-01-29T10:25:02.664Z,60.77
2023-01-29T10:26:04.526Z,61.16
2023-01-29T10:27:17.764Z,60.96
2023-01-29T10:28:43.598Z,61.73
2023-01-29T10:29:47.566Z,62.27
2023-01-29T10:30:51.524Z,62.23
2023-01-29T10:31:59.487Z,62.47
2023-01-29T10:33:15.226Z,62.39
2023-01-29T10:34:31.618Z,61.99
2023-01-29T10:35:43.605Z,62.01
2023-01-29T10:36:48.011Z,61.81
2023-01-29T10:37:52.941Z,62.23
2023-01-29T10:38:56.046Z,61.76
2023-01-29T10:39:59.959Z,62.31
2023-01-29T10:41:12.950Z,62.59
2023-01-29T10:42:26.501Z,62.40
2023-01-29T10:43:43.657Z,62.18
2023-01-29T10:45:06.320Z,62.26
2023-01-29T10:46:23.634Z,61.92
2023-01-29T10:47:44.930Z,62.42
2023-01-29T10:49:08.302Z,61.87
2023-01-29T10:50:21.891Z,62.23
2023-01-29T10:52:00.691Z,62.03
2023-01-29T10:53:23.781Z,61.90
2023-01-29T10:54:49.980Z,61.97
2023-01-29T10:56:13.947Z,61.88
2023-01-29T10:57:50.246Z,60.85
2023-01-29T10:58:56.815Z,61.19
2023-01-29T11:00:12.544Z,59.27
2023-01-29T11:01:14.414Z,59.23
2023-01-29T11:02:21.227Z,58.84
2023-01-29T11:03:29.361Z,59.96
2023-01-29T11:04:31.930Z,59.67
2023-01-29T11:05:41.104Z,59.25
2023-01-29T11:06:43.404Z,58.64
2023-01-29T11:07:45.421Z,59.22
2023-01-29T11:08:54.517Z,59.65
2023-01-29T11:10:08.396Z,59.97
2023-01-29T11:11:15.600Z,60.43
2023-01-29T11:12:22.745Z,59.33
2023-01-29T11:13:32.701Z,59.51
2023-01-29T11:14:46.230Z,59.46
2023-01-29T11:15:52.707Z,58.33
2023-01-29T11:16:54.770Z,60.03
2023-01-29T11:18:15.505Z,58.49
2023-01-29T11:19:17.530Z,58.75
2023-01-29T11:20:29.496Z,58.37
2023-01-29T11:21:30.965Z,58.74
2023-01-29T11:22:35.214Z,58.77
2023-01-29T11:23:37.022Z,59.52
2023-01-29T11:24:38.569Z,60.00
2023-01-29T11:25:40.142Z,59.68
2023-01-29T11:26:42.929Z,59.54
2023-01-29T11:27:45.862Z,59.49
2023-01-29T11:28:50.370Z,60.33
2023-01-29T11:29:56.045Z,59.56
2023-01-29T11:30:57.821Z,59.54
2023-01-29T11:32:00.780Z,60.24
2023-01-29T11:33:23.992Z,60.39
2023-01-29T11:34:27.780Z,60.36
2023-01-29T11:35:30.649Z,60.42
2023-01-29T11:36:35.189Z,60.32
2023-01-29T11:37:38.826Z,60.23
2023-01-29T11:38:40.338Z,60.73
2023-01-29T11:39:49.370Z,60.52
2023-01-29T11:40:51.848Z,60.63
2023-01-29T11:42:02.831Z,60.67
2023-01-29T11:43:30.934Z,59.63
2023-01-29T11:44:41.904Z,60.60
2023-01-29T11:45:43.983Z,60.22
2023-01-29T11:46:45.883Z,60.29
2023-01-29T11:47:53.991Z,60.02
2023-01-29T11:48:59.239Z,59.46
2023-01-29T11:50:04.797Z,60.09
2023-01-29T11:51:07.047Z,59.95
2023-01-29T11:52:10.232Z,59.13
2023-01-29T11:53:37.362Z,59.62
2023-01-29T11:54:46.862Z,60.39
2023-01-29T11:55:50.937Z,60.68
2023-01-29T11:56:52.830Z,60.54
2023-01-29T11:58:11.529Z,60.63
2023-01-29T11:59:49.194Z,60.18
2023-01-29T12:00:52.092Z,61.23
2023-01-29T12:01:54.623Z,63.32
2023-01-29T12:03:25.004Z,61.98
2023-01-29T12:04:30.684Z,61.40
2023-01-29T12:05:32.429Z,59.77
2023-01-29T12:06:36.588Z,60.28
2023-01-29T12:07:42.815Z,60.16
2023-01-29T12:08:44.439Z,60.49
2023-01-29T12:09:55.081Z,60.11
2023-01-29T12:11:09.073Z,60.64
2023-01-29T12:12:37.369Z,60.35
2023-01-29T12:13:40.637Z,60.15
2023-01-29T12:14:43.994Z,59.86
2023-01-29T12:15:46.315Z,59.59
2023-01-29T12:16:59.842Z,59.26
2023-01-29T12:18:04.126Z,58.91
2023-01-29T12:19:13.896Z,58.85
2023-01-29T12:20:22.640Z,59.39
2023-01-29T12:21:43.436Z,58.49
2023-01-29T12:22:57.207Z,59.46
2023-01-29T12:24:42.976Z,59.63
2023-01-29T12:26:00.496Z,58.99
2023-01-29T12:27:14.671Z,58.81
2023-01-29T12:28:22.967Z,58.97
2023-01-29T12:29:37.411Z,59.20
2023-01-29T12:30:51.281Z,59.79
2023-01-29T12:32:32.604Z,59.38
2023-01-29T12:33:46.522Z,58.59
2023-01-29T12:34:57.384Z,59.35
2023-01-29T12:36:05.376Z,59.61
2023-01-29T12:37:22.169Z,59.50
2023-01-29T12:38:24.246Z,60.27
2023-01-29T12:39:26.385Z,60.12
2023-01-29T12:40:40.366Z,59.46
2023-01-29T12:41:47.876Z,60.06
2023-01-29T12:42:53.346Z,59.22
2023-01-29T12:44:18.995Z,59.09
2023-01-29T12:45:23.958Z,59.62
2023-01-29T12:46:29.111Z,59.86
2023-01-29T12:47:36.297Z,60.35
2023-01-29T12:48:41.534Z,60.26
2023-01-29T12:49:48.294Z,60.25
2023-01-29T12:50:53.185Z,59.95
2023-01-29T12:51:59.103Z,60.33
2023-01-29T12:53:15.666Z,60.44
2023-01-29T12:54:29.197Z,60.92
2023-01-29T12:55:40.431Z,61.48
2023-01-29T12:56:48.620Z,61.27
2023-01-29T12:57:56.711Z,60.83
2023-01-29T12:59:02.574Z,60.83
2023-01-29T13:00:15.418Z,60.39
2023-01-29T13:01:27.442Z,59.68
2023-01-29T13:02:37.867Z,59.99
2023-01-29T13:03:53.613Z,59.96
2023-01-29T13:05:01.089Z,59.55
2023-01-29T13:06:10.247Z,59.75
2023-01-29T13:07:19.421Z,59.00
2023-01-29T13:08:29.276Z,58.07
2023-01-29T13:09:33.971Z,58.72
2023-01-29T13:10:41.557Z,58.01
2023-01-29T13:11:51.599Z,58.93
2023-01-29T13:13:03.806Z,57.71
2023-01-29T13:14:22.819Z,58.26
2023-01-29T13:15:35.149Z,58.91
2023-01-29T13:16:43.770Z,58.75
2023-01-29T13:17:55.210Z,59.63
2023-01-29T13:19:05.126Z,59.57
2023-01-29T13:20:34.516Z,59.21
2023-01-29T13:21:43.900Z,59.40
2023-01-29T13:22:48.326Z,60.18
2023-01-29T13:24:21.133Z,60.40
2023-01-29T13:25:23.006Z,59.92
2023-01-29T13:26:26.518Z,60.21
2023-01-29T13:27:30.481Z,59.93
2023-01-29T13:28:32.542Z,59.54
2023-01-29T13:29:34.363Z,59.03
2023-01-29T13:30:37.501Z,58.70
2023-01-29T13:31:41.144Z,59.13
2023-01-29T13:32:51.680Z,59.89
2023-01-29T13:33:59.382Z,59.68
2023-01-29T13:35:12.957Z,59.76
2023-01-29T13:36:19.965Z,60.10
2023-01-29T13:37:30.235Z,59.17
2023-01-29T13:38:33.697Z,59.49
2023-01-29T13:39:49.085Z,59.69
2023-01-29T13:40:51.438Z,59.83
2023-01-29T13:41:54.992Z,58.96
2023-01-29T13:42:59.927Z,59.01
2023-01-29T13:44:03.354Z,59.57
2023-01-29T13:45:07.623Z,59.45
2023-01-29T13:46:15.235Z,59.26
2023-01-29T13:47:27.359Z,58.98
2023-01-29T13:48:36.915Z,58.58
2023-01-29T13:50:07.823Z,58.72
2023-01-29T13:51:21.043Z,58.35
2023-01-29T13:52:37.113Z,57.49
2023-01-29T13:53:41.643Z,56.79
2023-01-29T13:54:54.259Z,56.52
2023-01-29T13:55:56.098Z,56.87
2023-01-29T13:57:01.602Z,55.40
2023-01-29T13:58:07.038Z,54.58
2023-01-29T13:59:25.280Z,54.68
2023-01-29T14:00:36.214Z,53.77
2023-01-29T14:01:46.596Z,53.46
2023-01-29T14:03:00.198Z,54.54
2023-01-29T14:04:29.204Z,53.69
2023-01-29T14:05:30.802Z,54.36
2023-01-29T14:06:43.968Z,54.97
2023-01-29T14:07:45.432Z,55.21
2023-01-29T14:08:47.540Z,55.40
2023-01-29T14:09:48.923Z,54.12
2023-01-29T14:11:13.126Z,53.51
2023-01-29T14:12:23.813Z,53.71
2023-01-29T14:13:35.387Z,55.20
2023-01-29T14:14:49.212Z,55.19
2023-01-29T14:15:56.866Z,54.66
2023-01-29T14:17:02.395Z,54.11
2023-01-29T14:18:23.947Z,52.63
2023-01-29T14:19:25.292Z,53.80
2023-01-29T14:20:45.184Z,54.21
2023-01-29T14:21:50.442Z,53.87
2023-01-29T14:22:59.484Z,53.74
2023-01-29T14:24:24.671Z,53.77
2023-01-29T14:25:33.143Z,54.34
2023-01-29T14:26:38.268Z,54.07
2023-01-29T14:27:46.739Z,52.99
2023-01-29T14:29:02.447Z,52.27
2023-01-29T14:30:09.709Z,52.47
2023-01-29T14:31:11.429Z,52.14
2023-01-29T14:32:21.472Z,53.27
2023-01-29T14:33:33.886Z,52.76
2023-01-29T14:34:42.856Z,52.91
2023-01-29T14:35:50.749Z,52.79
2023-01-29T14:36:55.987Z,53.96
2023-01-29T14:38:05.476Z,54.22